Wan Hai 273 — 9V7586 — position and weather

sailwx.info

Track history (hours):
 
Tides and Currents Weather Stations Pressure Air Temp Water Temp Dewpoint Dewpoint Depression Visibility Wind Speed Wind Dir Waves Ship Positions

Wan Hai 273

Last reported at 2016-Feb-11 05:30 UTC. Time now 2016-Feb-11 08:48 UTC.
Position N 22°21' E 113°58'.

Length 172 m; draft 7.8 m.

Type: Cargo ship. MMSI: 566406000.

Date/timePositionNaut miles runAvg speedWind from/ knotsBaromVisibWave heightAir tempDewpointWater temp
2016-Feb-11 05:30N 22°21' E 113°58'6 6.3
2016-Feb-11 04:31N 22°20' E 114°04'0 0.1
2016-Feb-11 03:31N 22°20' E 114°04'0 0.1
2016-Feb-11 02:31N 22°20' E 114°05'0 0.1
2016-Feb-11 01:31N 22°20' E 114°04'0 0.0
2016-Feb-11 00:28N 22°20' E 114°04'0 0.0
2016-Feb-10 23:34N 22°20' E 114°04'0 0.1
2016-Feb-10 22:34N 22°20' E 114°05'0 0.1
2016-Feb-10 21:34N 22°20' E 114°04'0 0.1
2016-Feb-10 20:33N 22°20' E 114°05'2 1.9
2016-Feb-10 19:33N 22°19' E 114°07'1 1.1
2016-Feb-10 18:32N 22°20' E 114°08'0 0.0
2016-Feb-10 17:32N 22°20' E 114°08'0 0.0
2016-Feb-10 16:32N 22°20' E 114°08'0 0.0
2016-Feb-10 15:32N 22°20' E 114°08'0 0.0
2016-Feb-10 14:32N 22°20' E 114°08'0 0.0
2016-Feb-10 13:32N 22°20' E 114°08'0 0.0
2016-Feb-10 12:33N 22°20' E 114°08'0 0.1
2016-Feb-10 11:31N 22°20' E 114°08'0 0.1
2016-Feb-10 10:31N 22°20' E 114°08'0 0.1
2016-Feb-10 09:31N 22°20' E 114°08'0 0.0
2016-Feb-10 08:31N 22°20' E 114°08'0 0.2
2016-Feb-10 07:33N 22°20' E 114°08'7 6.1
2016-Feb-10 06:26N 22°13' E 114°10'9 9.0
2016-Feb-10 05:29N 22°08' E 114°17'1010.7
2016-Feb-10 04:33N 22°05' E 114°28'2 0.3
2016-Feb-09 23:28N 22°05' E 114°29'1111.6
2016-Feb-09 22:33N 22°08' E 114°40'10016.6
2016-Feb-09 16:30N 22°35' E 116°24'1616.5
2016-Feb-09 15:33N 22°42' E 116°39'2016.5
2016-Feb-09 14:20N 22°52' E 116°59'1316.4
2016-Feb-09 13:33N 22°59' E 117°10'1616.1
2016-Feb-09 12:33N 23°06' E 117°26'1916.4
2016-Feb-09 11:24N 23°15' E 117°44'1517.0
2016-Feb-09 10:30N 23°24' E 117°58'1617.1
2016-Feb-09 09:33N 23°35' E 118°11'1818.1
2016-Feb-09 08:33N 23°47' E 118°25'1818.0
2016-Feb-09 07:32N 23°60' E 118°40'1918.4
2016-Feb-09 06:31N 24°15' E 118°52'1818.6
2016-Feb-09 05:33N 24°28' E 119°05'3717.8
2016-Feb-09 03:28N 24°56' E 119°32'3717.0
2016-Feb-09 01:17N 25°21' E 120°03'1317.2
2016-Feb-09 00:33N 25°30' E 120°13'27816.3
2016-Feb-08 07:32N 29°31' E 122°49'1717.4
2016-Feb-08 06:33N 29°47' E 122°55'  
2016-Feb-02 23:03N 34°56' E 139°24'917.6
2016-Feb-02 22:33N 35°01' E 139°32'1616.0
2016-Feb-02 21:34N 35°13' E 139°46'1212.0
2016-Feb-02 20:34N 35°24' E 139°43'1111.4
2016-Feb-02 19:33N 35°35' E 139°47'1 1.1
2016-Feb-02 18:28N 35°36' E 139°46'0 0.0
2016-Feb-02 17:31N 35°36' E 139°46'0 0.0
2016-Feb-02 16:31N 35°36' E 139°46'0 0.0
2016-Feb-02 15:31N 35°36' E 139°46'0 0.0
2016-Feb-02 14:31N 35°36' E 139°46'0 0.0
2016-Feb-02 13:31N 35°36' E 139°46'0 0.0
2016-Feb-02 12:31N 35°36' E 139°46'0 0.0
2016-Feb-02 11:28N 35°36' E 139°46'0 0.0
2016-Feb-02 10:28N 35°36' E 139°46'0 0.0
2016-Feb-02 09:31N 35°36' E 139°46'0 0.0
2016-Feb-02 08:28N 35°36' E 139°46'0 0.0
2016-Feb-02 07:31N 35°36' E 139°46'0 0.0
2016-Feb-02 06:28N 35°36' E 139°46'0 0.0
2016-Feb-02 05:31N 35°36' E 139°46'2 2.1
2016-Feb-02 04:33N 35°35' E 139°48'9 8.8
2016-Feb-02 03:33N 35°26' E 139°46'5 4.4
2016-Feb-02 02:31N 35°26' E 139°41'0 0.0
2016-Feb-02 01:31N 35°26' E 139°41'0 0.0
2016-Feb-02 00:31N 35°26' E 139°41'0 0.0
2016-Feb-01 23:31N 35°26' E 139°41'0 0.0
2016-Feb-01 22:31N 35°26' E 139°41'2 2.0
2016-Feb-01 21:33N 35°26' E 139°43'1010.1
2016-Feb-01 20:33N 35°16' E 139°46'1110.7
2016-Feb-01 19:33N 35°05' E 139°46'1313.2
2016-Feb-01 18:33N 34°54' E 139°37'  
Track history (hours):
 
Tides and Currents Weather Stations Pressure Air Temp Water Temp Dewpoint Dewpoint Depression Visibility Wind Speed Wind Dir Waves Ship Positions

Wan Hai 273

Last reported at 2016-Feb-11 05:30 UTC. Time now 2016-Feb-11 08:48 UTC.
Position N 22°21' E 113°58'.

Length 172 m; draft 7.8 m.

Type: Cargo ship. MMSI: 566406000.

Date/timePositionNaut miles runAvg speedWind from/ knotsBaromVisibWave heightAir tempDewpointWater temp
2016-Feb-11 05:30N 22°21' E 113°58'6 6.3
2016-Feb-11 04:31N 22°20' E 114°04'0 0.1
2016-Feb-11 03:31N 22°20' E 114°04'0 0.1
2016-Feb-11 02:31N 22°20' E 114°05'0 0.1
2016-Feb-11 01:31N 22°20' E 114°04'0 0.0
2016-Feb-11 00:28N 22°20' E 114°04'0 0.0
2016-Feb-10 23:34N 22°20' E 114°04'0 0.1
2016-Feb-10 22:34N 22°20' E 114°05'0 0.1
2016-Feb-10 21:34N 22°20' E 114°04'0 0.1
2016-Feb-10 20:33N 22°20' E 114°05'2 1.9
2016-Feb-10 19:33N 22°19' E 114°07'1 1.1
2016-Feb-10 18:32N 22°20' E 114°08'0 0.0
2016-Feb-10 17:32N 22°20' E 114°08'0 0.0
2016-Feb-10 16:32N 22°20' E 114°08'0 0.0
2016-Feb-10 15:32N 22°20' E 114°08'0 0.0
2016-Feb-10 14:32N 22°20' E 114°08'0 0.0
2016-Feb-10 13:32N 22°20' E 114°08'0 0.0
2016-Feb-10 12:33N 22°20' E 114°08'0 0.1
2016-Feb-10 11:31N 22°20' E 114°08'0 0.1
2016-Feb-10 10:31N 22°20' E 114°08'0 0.1
2016-Feb-10 09:31N 22°20' E 114°08'0 0.0
2016-Feb-10 08:31N 22°20' E 114°08'0 0.2
2016-Feb-10 07:33N 22°20' E 114°08'7 6.1
2016-Feb-10 06:26N 22°13' E 114°10'9 9.0
2016-Feb-10 05:29N 22°08' E 114°17'1010.7
2016-Feb-10 04:33N 22°05' E 114°28'2 0.3
2016-Feb-09 23:28N 22°05' E 114°29'1111.6
2016-Feb-09 22:33N 22°08' E 114°40'10016.6
2016-Feb-09 16:30N 22°35' E 116°24'1616.5
2016-Feb-09 15:33N 22°42' E 116°39'2016.5
2016-Feb-09 14:20N 22°52' E 116°59'1316.4
2016-Feb-09 13:33N 22°59' E 117°10'1616.1
2016-Feb-09 12:33N 23°06' E 117°26'1916.4
2016-Feb-09 11:24N 23°15' E 117°44'1517.0
2016-Feb-09 10:30N 23°24' E 117°58'1617.1
2016-Feb-09 09:33N 23°35' E 118°11'1818.1
2016-Feb-09 08:33N 23°47' E 118°25'1818.0
2016-Feb-09 07:32N 23°60' E 118°40'1918.4
2016-Feb-09 06:31N 24°15' E 118°52'1818.6
2016-Feb-09 05:33N 24°28' E 119°05'3717.8
2016-Feb-09 03:28N 24°56' E 119°32'3717.0
2016-Feb-09 01:17N 25°21' E 120°03'1317.2
2016-Feb-09 00:33N 25°30' E 120°13'27816.3
2016-Feb-08 07:32N 29°31' E 122°49'1717.4
2016-Feb-08 06:33N 29°47' E 122°55'  
2016-Feb-02 23:03N 34°56' E 139°24'917.6
2016-Feb-02 22:33N 35°01' E 139°32'1616.0
2016-Feb-02 21:34N 35°13' E 139°46'1212.0
2016-Feb-02 20:34N 35°24' E 139°43'1111.4
2016-Feb-02 19:33N 35°35' E 139°47'1 1.1
2016-Feb-02 18:28N 35°36' E 139°46'0 0.0
2016-Feb-02 17:31N 35°36' E 139°46'0 0.0
2016-Feb-02 16:31N 35°36' E 139°46'0 0.0
2016-Feb-02 15:31N 35°36' E 139°46'0 0.0
2016-Feb-02 14:31N 35°36' E 139°46'0 0.0
2016-Feb-02 13:31N 35°36' E 139°46'0 0.0
2016-Feb-02 12:31N 35°36' E 139°46'0 0.0
2016-Feb-02 11:28N 35°36' E 139°46'0 0.0
2016-Feb-02 10:28N 35°36' E 139°46'0 0.0
2016-Feb-02 09:31N 35°36' E 139°46'0 0.0
2016-Feb-02 08:28N 35°36' E 139°46'0 0.0
2016-Feb-02 07:31N 35°36' E 139°46'0 0.0
2016-Feb-02 06:28N 35°36' E 139°46'0 0.0
2016-Feb-02 05:31N 35°36' E 139°46'2 2.1
2016-Feb-02 04:33N 35°35' E 139°48'9 8.8
2016-Feb-02 03:33N 35°26' E 139°46'5 4.4
2016-Feb-02 02:31N 35°26' E 139°41'0 0.0
2016-Feb-02 01:31N 35°26' E 139°41'0 0.0
2016-Feb-02 00:31N 35°26' E 139°41'0 0.0
2016-Feb-01 23:31N 35°26' E 139°41'0 0.0
2016-Feb-01 22:31N 35°26' E 139°41'2 2.0
2016-Feb-01 21:33N 35°26' E 139°43'1010.1
2016-Feb-01 20:33N 35°16' E 139°46'1110.7
2016-Feb-01 19:33N 35°05' E 139°46'1313.2
2016-Feb-01 18:33N 34°54' E 139°37'  

Dump ship's entire track history